sensor_id;sensor_type;location;lat;lon;timestamp;P1;durP1;ratioP1;P2;durP2;ratioP2
39848;SDS011;25518;47.878;15.914;2023-04-22T00:02:29;5.35;;;2.47;;
39848;SDS011;25518;47.878;15.914;2023-04-22T00:05:18;7.57;;;3.10;;
39848;SDS011;25518;47.878;15.914;2023-04-22T00:08:08;8.45;;;3.28;;
39848;SDS011;25518;47.878;15.914;2023-04-22T00:10:59;5.78;;;2.60;;
39848;SDS011;25518;47.878;15.914;2023-04-22T00:13:48;8.43;;;3.13;;
39848;SDS011;25518;47.878;15.914;2023-04-22T00:16:38;7.65;;;3.03;;
39848;SDS011;25518;47.878;15.914;2023-04-22T00:19:27;5.90;;;2.25;;
39848;SDS011;25518;47.878;15.914;2023-04-22T00:22:17;6.05;;;2.53;;
39848;SDS011;25518;47.878;15.914;2023-04-22T00:25:07;4.60;;;2.60;;
39848;SDS011;25518;47.878;15.914;2023-04-22T00:27:57;7.72;;;2.78;;
39848;SDS011;25518;47.878;15.914;2023-04-22T00:30:46;4.68;;;2.40;;
39848;SDS011;25518;47.878;15.914;2023-04-22T00:33:36;4.13;;;2.13;;
39848;SDS011;25518;47.878;15.914;2023-04-22T00:36:25;5.90;;;2.55;;
39848;SDS011;25518;47.878;15.914;2023-04-22T00:39:15;6.32;;;2.90;;
39848;SDS011;25518;47.878;15.914;2023-04-22T00:42:05;5.90;;;2.90;;
39848;SDS011;25518;47.878;15.914;2023-04-22T00:44:55;5.00;;;2.70;;
39848;SDS011;25518;47.878;15.914;2023-04-22T00:47:46;6.28;;;2.40;;
39848;SDS011;25518;47.878;15.914;2023-04-22T00:50:36;6.15;;;2.42;;
39848;SDS011;25518;47.878;15.914;2023-04-22T00:53:26;6.03;;;2.40;;
39848;SDS011;25518;47.878;15.914;2023-04-22T00:56:16;6.63;;;2.40;;
39848;SDS011;25518;47.878;15.914;2023-04-22T00:59:07;7.47;;;2.60;;
39848;SDS011;25518;47.878;15.914;2023-04-22T01:01:58;6.15;;;3.38;;
39848;SDS011;25518;47.878;15.914;2023-04-22T01:04:49;6.17;;;2.80;;
39848;SDS011;25518;47.878;15.914;2023-04-22T01:07:42;5.78;;;2.50;;
39848;SDS011;25518;47.878;15.914;2023-04-22T01:10:31;4.57;;;2.50;;
39848;SDS011;25518;47.878;15.914;2023-04-22T01:13:21;7.35;;;2.63;;
39848;SDS011;25518;47.878;15.914;2023-04-22T01:16:10;7.50;;;3.08;;
39848;SDS011;25518;47.878;15.914;2023-04-22T01:19:01;7.37;;;2.77;;
39848;SDS011;25518;47.878;15.914;2023-04-22T01:21:51;6.40;;;3.05;;
39848;SDS011;25518;47.878;15.914;2023-04-22T01:24:42;6.53;;;2.78;;
39848;SDS011;25518;47.878;15.914;2023-04-22T01:27:32;7.32;;;2.78;;
39848;SDS011;25518;47.878;15.914;2023-04-22T01:30:22;8.90;;;2.28;;
39848;SDS011;25518;47.878;15.914;2023-04-22T01:33:12;5.57;;;2.72;;
39848;SDS011;25518;47.878;15.914;2023-04-22T01:36:04;5.87;;;2.77;;
39848;SDS011;25518;47.878;15.914;2023-04-22T01:38:54;6.32;;;2.78;;
39848;SDS011;25518;47.878;15.914;2023-04-22T01:41:44;5.70;;;2.80;;
39848;SDS011;25518;47.878;15.914;2023-04-22T01:44:35;6.70;;;2.83;;
39848;SDS011;25518;47.878;15.914;2023-04-22T01:47:24;6.95;;;2.55;;
39848;SDS011;25518;47.878;15.914;2023-04-22T01:50:15;5.32;;;2.45;;
39848;SDS011;25518;47.878;15.914;2023-04-22T01:53:05;5.07;;;2.53;;
39848;SDS011;25518;47.878;15.914;2023-04-22T01:55:55;6.35;;;2.83;;
39848;SDS011;25518;47.878;15.914;2023-04-22T01:58:44;3.85;;;2.30;;
39848;SDS011;25518;47.878;15.914;2023-04-22T02:01:34;6.15;;;2.60;;
39848;SDS011;25518;47.878;15.914;2023-04-22T02:04:23;5.10;;;2.42;;
39848;SDS011;25518;47.878;15.914;2023-04-22T02:07:13;5.68;;;2.65;;
39848;SDS011;25518;47.878;15.914;2023-04-22T02:10:03;5.53;;;2.65;;
39848;SDS011;25518;47.878;15.914;2023-04-22T02:12:54;6.30;;;2.70;;
39848;SDS011;25518;47.878;15.914;2023-04-22T02:15:43;7.55;;;2.53;;
39848;SDS011;25518;47.878;15.914;2023-04-22T02:18:33;5.10;;;2.30;;
39848;SDS011;25518;47.878;15.914;2023-04-22T02:21:23;5.72;;;3.00;;
39848;SDS011;25518;47.878;15.914;2023-04-22T02:24:12;5.77;;;2.57;;
39848;SDS011;25518;47.878;15.914;2023-04-22T02:27:02;6.65;;;2.30;;
39848;SDS011;25518;47.878;15.914;2023-04-22T02:29:52;5.38;;;2.40;;
39848;SDS011;25518;47.878;15.914;2023-04-22T02:32:42;5.95;;;2.67;;
39848;SDS011;25518;47.878;15.914;2023-04-22T02:35:31;6.27;;;2.53;;
39848;SDS011;25518;47.878;15.914;2023-04-22T02:38:21;4.60;;;2.37;;
39848;SDS011;25518;47.878;15.914;2023-04-22T02:41:10;9.25;;;3.55;;
39848;SDS011;25518;47.878;15.914;2023-04-22T02:44:00;5.70;;;2.78;;
39848;SDS011;25518;47.878;15.914;2023-04-22T02:46:49;5.43;;;2.45;;
39848;SDS011;25518;47.878;15.914;2023-04-22T02:49:39;6.22;;;2.38;;
39848;SDS011;25518;47.878;15.914;2023-04-22T02:52:29;6.40;;;3.20;;
39848;SDS011;25518;47.878;15.914;2023-04-22T02:55:18;6.60;;;2.90;;
39848;SDS011;25518;47.878;15.914;2023-04-22T02:58:09;5.38;;;2.90;;
39848;SDS011;25518;47.878;15.914;2023-04-22T03:17:56;6.82;;;2.50;;
39848;SDS011;25518;47.878;15.914;2023-04-22T03:20:46;6.13;;;2.60;;
39848;SDS011;25518;47.878;15.914;2023-04-22T03:23:37;5.65;;;2.33;;
39848;SDS011;25518;47.878;15.914;2023-04-22T03:26:27;6.05;;;2.35;;
39848;SDS011;25518;47.878;15.914;2023-04-22T03:29:16;6.18;;;3.35;;
39848;SDS011;25518;47.878;15.914;2023-04-22T03:32:06;4.45;;;2.35;;
39848;SDS011;25518;47.878;15.914;2023-04-22T03:34:56;7.45;;;2.67;;
39848;SDS011;25518;47.878;15.914;2023-04-22T03:37:45;5.13;;;2.67;;
39848;SDS011;25518;47.878;15.914;2023-04-22T03:40:35;4.90;;;2.63;;
39848;SDS011;25518;47.878;15.914;2023-04-22T03:43:24;5.90;;;2.30;;
39848;SDS011;25518;47.878;15.914;2023-04-22T03:46:14;6.38;;;2.50;;
39848;SDS011;25518;47.878;15.914;2023-04-22T03:49:05;7.32;;;2.72;;
39848;SDS011;25518;47.878;15.914;2023-04-22T03:51:54;7.72;;;2.90;;
39848;SDS011;25518;47.878;15.914;2023-04-22T03:54:44;6.35;;;2.50;;
39848;SDS011;25518;47.878;15.914;2023-04-22T03:57:34;5.85;;;2.38;;
39848;SDS011;25518;47.878;15.914;2023-04-22T04:00:24;4.18;;;2.50;;
39848;SDS011;25518;47.878;15.914;2023-04-22T04:03:14;5.38;;;2.25;;
39848;SDS011;25518;47.878;15.914;2023-04-22T04:06:03;5.90;;;2.87;;
39848;SDS011;25518;47.878;15.914;2023-04-22T04:08:53;5.43;;;2.40;;
39848;SDS011;25518;47.878;15.914;2023-04-22T04:11:43;6.63;;;2.43;;
39848;SDS011;25518;47.878;15.914;2023-04-22T04:14:32;4.63;;;2.42;;
39848;SDS011;25518;47.878;15.914;2023-04-22T04:17:22;4.82;;;2.53;;
39848;SDS011;25518;47.878;15.914;2023-04-22T04:20:13;6.40;;;2.70;;
39848;SDS011;25518;47.878;15.914;2023-04-22T04:23:03;8.10;;;2.58;;
39848;SDS011;25518;47.878;15.914;2023-04-22T04:25:53;6.72;;;2.92;;
39848;SDS011;25518;47.878;15.914;2023-04-22T04:28:43;6.38;;;3.13;;
39848;SDS011;25518;47.878;15.914;2023-04-22T04:31:33;7.28;;;2.70;;
39848;SDS011;25518;47.878;15.914;2023-04-22T04:34:23;8.07;;;2.80;;
39848;SDS011;25518;47.878;15.914;2023-04-22T04:37:13;5.57;;;2.88;;
39848;SDS011;25518;47.878;15.914;2023-04-22T04:40:05;6.32;;;2.85;;
39848;SDS011;25518;47.878;15.914;2023-04-22T04:42:55;6.00;;;2.90;;
39848;SDS011;25518;47.878;15.914;2023-04-22T04:45:45;6.72;;;2.75;;
39848;SDS011;25518;47.878;15.914;2023-04-22T04:48:34;4.72;;;2.70;;
39848;SDS011;25518;47.878;15.914;2023-04-22T04:51:24;6.00;;;2.60;;
39848;SDS011;25518;47.878;15.914;2023-04-22T04:54:14;5.40;;;2.13;;
39848;SDS011;25518;47.878;15.914;2023-04-22T04:57:04;4.93;;;2.50;;
39848;SDS011;25518;47.878;15.914;2023-04-22T04:59:54;6.13;;;2.97;;
39848;SDS011;25518;47.878;15.914;2023-04-22T05:02:43;5.43;;;2.47;;
39848;SDS011;25518;47.878;15.914;2023-04-22T05:05:33;4.90;;;2.30;;
39848;SDS011;25518;47.878;15.914;2023-04-22T05:08:23;7.07;;;2.40;;
39848;SDS011;25518;47.878;15.914;2023-04-22T05:11:13;7.13;;;2.70;;
39848;SDS011;25518;47.878;15.914;2023-04-22T05:14:02;6.13;;;2.28;;
39848;SDS011;25518;47.878;15.914;2023-04-22T05:16:53;6.82;;;2.83;;
39848;SDS011;25518;47.878;15.914;2023-04-22T05:19:43;4.60;;;2.35;;
39848;SDS011;25518;47.878;15.914;2023-04-22T05:22:33;10.18;;;2.83;;
39848;SDS011;25518;47.878;15.914;2023-04-22T05:25:24;7.93;;;3.00;;
39848;SDS011;25518;47.878;15.914;2023-04-22T05:28:14;6.07;;;2.63;;
39848;SDS011;25518;47.878;15.914;2023-04-22T05:31:04;8.27;;;3.05;;
39848;SDS011;25518;47.878;15.914;2023-04-22T05:33:55;4.10;;;2.40;;
39848;SDS011;25518;47.878;15.914;2023-04-22T05:36:44;4.55;;;2.47;;
39848;SDS011;25518;47.878;15.914;2023-04-22T05:39:34;4.63;;;2.37;;
39848;SDS011;25518;47.878;15.914;2023-04-22T05:42:24;5.32;;;2.67;;
39848;SDS011;25518;47.878;15.914;2023-04-22T05:45:13;3.55;;;2.33;;
39848;SDS011;25518;47.878;15.914;2023-04-22T05:48:03;6.00;;;2.80;;
39848;SDS011;25518;47.878;15.914;2023-04-22T05:50:53;6.97;;;2.67;;
39848;SDS011;25518;47.878;15.914;2023-04-22T05:53:42;5.15;;;2.70;;
39848;SDS011;25518;47.878;15.914;2023-04-22T05:56:32;4.15;;;2.58;;
39848;SDS011;25518;47.878;15.914;2023-04-22T05:59:22;5.80;;;2.67;;
39848;SDS011;25518;47.878;15.914;2023-04-22T06:02:11;4.75;;;2.75;;
39848;SDS011;25518;47.878;15.914;2023-04-22T06:05:01;3.80;;;2.50;;
39848;SDS011;25518;47.878;15.914;2023-04-22T06:07:50;7.47;;;2.60;;
39848;SDS011;25518;47.878;15.914;2023-04-22T06:10:40;6.22;;;2.65;;
39848;SDS011;25518;47.878;15.914;2023-04-22T06:13:30;6.10;;;2.53;;
39848;SDS011;25518;47.878;15.914;2023-04-22T06:16:20;8.43;;;2.85;;
39848;SDS011;25518;47.878;15.914;2023-04-22T06:19:10;5.50;;;2.80;;
39848;SDS011;25518;47.878;15.914;2023-04-22T06:22:00;6.53;;;3.05;;
39848;SDS011;25518;47.878;15.914;2023-04-22T06:24:50;5.47;;;2.72;;
39848;SDS011;25518;47.878;15.914;2023-04-22T06:27:39;5.33;;;2.77;;
39848;SDS011;25518;47.878;15.914;2023-04-22T06:30:29;8.13;;;2.85;;
39848;SDS011;25518;47.878;15.914;2023-04-22T06:33:19;6.15;;;3.10;;
39848;SDS011;25518;47.878;15.914;2023-04-22T06:36:08;6.03;;;3.38;;
39848;SDS011;25518;47.878;15.914;2023-04-22T06:38:58;5.90;;;3.42;;
39848;SDS011;25518;47.878;15.914;2023-04-22T06:41:47;7.97;;;3.13;;
39848;SDS011;25518;47.878;15.914;2023-04-22T06:44:38;7.35;;;3.10;;
39848;SDS011;25518;47.878;15.914;2023-04-22T06:47:27;4.65;;;2.60;;
39848;SDS011;25518;47.878;15.914;2023-04-22T06:50:16;7.22;;;3.10;;
39848;SDS011;25518;47.878;15.914;2023-04-22T06:53:06;5.47;;;2.80;;
39848;SDS011;25518;47.878;15.914;2023-04-22T06:55:57;8.13;;;3.10;;
39848;SDS011;25518;47.878;15.914;2023-04-22T06:58:47;8.57;;;3.47;;
39848;SDS011;25518;47.878;15.914;2023-04-22T07:01:36;9.05;;;2.97;;
39848;SDS011;25518;47.878;15.914;2023-04-22T07:04:25;6.20;;;2.88;;
39848;SDS011;25518;47.878;15.914;2023-04-22T07:07:17;7.45;;;3.22;;
39848;SDS011;25518;47.878;15.914;2023-04-22T07:10:07;8.55;;;3.13;;
39848;SDS011;25518;47.878;15.914;2023-04-22T07:12:58;7.77;;;3.37;;
39848;SDS011;25518;47.878;15.914;2023-04-22T07:15:47;7.32;;;3.55;;
39848;SDS011;25518;47.878;15.914;2023-04-22T07:18:37;6.50;;;3.20;;
39848;SDS011;25518;47.878;15.914;2023-04-22T07:21:27;5.18;;;2.85;;
39848;SDS011;25518;47.878;15.914;2023-04-22T07:24:17;4.85;;;3.30;;
39848;SDS011;25518;47.878;15.914;2023-04-22T07:27:06;5.70;;;3.20;;
39848;SDS011;25518;47.878;15.914;2023-04-22T07:29:56;6.07;;;3.33;;
39848;SDS011;25518;47.878;15.914;2023-04-22T07:32:46;5.35;;;2.97;;
39848;SDS011;25518;47.878;15.914;2023-04-22T07:35:36;6.55;;;2.95;;
39848;SDS011;25518;47.878;15.914;2023-04-22T07:38:25;7.03;;;3.58;;
39848;SDS011;25518;47.878;15.914;2023-04-22T07:41:15;6.10;;;3.50;;
39848;SDS011;25518;47.878;15.914;2023-04-22T07:44:05;9.20;;;2.85;;
39848;SDS011;25518;47.878;15.914;2023-04-22T07:46:54;4.57;;;2.80;;
39848;SDS011;25518;47.878;15.914;2023-04-22T07:49:44;5.72;;;2.80;;
39848;SDS011;25518;47.878;15.914;2023-04-22T07:52:34;7.63;;;2.70;;
39848;SDS011;25518;47.878;15.914;2023-04-22T07:55:24;5.60;;;2.60;;
39848;SDS011;25518;47.878;15.914;2023-04-22T07:58:14;6.00;;;2.90;;
39848;SDS011;25518;47.878;15.914;2023-04-22T08:01:04;4.35;;;2.55;;
39848;SDS011;25518;47.878;15.914;2023-04-22T08:03:54;5.53;;;2.75;;
39848;SDS011;25518;47.878;15.914;2023-04-22T08:06:44;4.82;;;2.53;;
39848;SDS011;25518;47.878;15.914;2023-04-22T08:09:34;6.35;;;2.78;;
39848;SDS011;25518;47.878;15.914;2023-04-22T08:12:23;5.70;;;2.90;;
39848;SDS011;25518;47.878;15.914;2023-04-22T08:15:13;5.25;;;2.60;;
39848;SDS011;25518;47.878;15.914;2023-04-22T08:18:03;4.20;;;2.58;;
39848;SDS011;25518;47.878;15.914;2023-04-22T08:20:53;7.07;;;3.05;;
39848;SDS011;25518;47.878;15.914;2023-04-22T08:23:43;6.13;;;2.70;;
39848;SDS011;25518;47.878;15.914;2023-04-22T08:26:32;8.03;;;2.93;;
39848;SDS011;25518;47.878;15.914;2023-04-22T08:29:23;7.47;;;2.90;;
39848;SDS011;25518;47.878;15.914;2023-04-22T08:32:13;4.80;;;3.00;;
39848;SDS011;25518;47.878;15.914;2023-04-22T08:35:03;5.82;;;2.97;;
39848;SDS011;25518;47.878;15.914;2023-04-22T08:37:53;4.37;;;2.53;;
39848;SDS011;25518;47.878;15.914;2023-04-22T08:40:42;5.43;;;3.00;;
39848;SDS011;25518;47.878;15.914;2023-04-22T08:43:32;7.32;;;3.05;;
39848;SDS011;25518;47.878;15.914;2023-04-22T08:46:22;5.40;;;3.25;;
39848;SDS011;25518;47.878;15.914;2023-04-22T08:49:14;5.68;;;2.50;;
39848;SDS011;25518;47.878;15.914;2023-04-22T08:52:04;7.63;;;3.00;;
39848;SDS011;25518;47.878;15.914;2023-04-22T08:54:54;5.50;;;2.65;;
39848;SDS011;25518;47.878;15.914;2023-04-22T08:57:43;5.65;;;2.78;;
39848;SDS011;25518;47.878;15.914;2023-04-22T09:00:34;5.18;;;2.58;;
39848;SDS011;25518;47.878;15.914;2023-04-22T09:03:24;5.97;;;2.75;;
39848;SDS011;25518;47.878;15.914;2023-04-22T09:06:14;5.57;;;3.00;;
39848;SDS011;25518;47.878;15.914;2023-04-22T09:09:07;6.00;;;2.45;;
39848;SDS011;25518;47.878;15.914;2023-04-22T09:11:57;5.63;;;2.90;;
39848;SDS011;25518;47.878;15.914;2023-04-22T09:14:46;4.80;;;2.60;;
39848;SDS011;25518;47.878;15.914;2023-04-22T09:17:36;7.22;;;3.20;;
39848;SDS011;25518;47.878;15.914;2023-04-22T09:20:27;5.75;;;2.90;;
39848;SDS011;25518;47.878;15.914;2023-04-22T09:23:17;6.43;;;3.22;;
39848;SDS011;25518;47.878;15.914;2023-04-22T09:26:07;10.73;;;3.90;;
39848;SDS011;25518;47.878;15.914;2023-04-22T09:28:57;5.85;;;2.80;;
39848;SDS011;25518;47.878;15.914;2023-04-22T09:31:49;6.90;;;2.88;;
39848;SDS011;25518;47.878;15.914;2023-04-22T09:34:54;5.15;;;2.90;;
39848;SDS011;25518;47.878;15.914;2023-04-22T09:37:45;4.85;;;2.92;;
39848;SDS011;25518;47.878;15.914;2023-04-22T09:40:41;7.13;;;2.80;;
39848;SDS011;25518;47.878;15.914;2023-04-22T09:43:31;5.20;;;2.85;;
39848;SDS011;25518;47.878;15.914;2023-04-22T09:46:21;5.82;;;2.80;;
39848;SDS011;25518;47.878;15.914;2023-04-22T09:49:14;6.57;;;2.85;;
39848;SDS011;25518;47.878;15.914;2023-04-22T09:52:05;5.88;;;2.60;;
39848;SDS011;25518;47.878;15.914;2023-04-22T09:54:54;5.50;;;2.65;;
39848;SDS011;25518;47.878;15.914;2023-04-22T09:57:44;5.07;;;2.70;;
39848;SDS011;25518;47.878;15.914;2023-04-22T10:00:34;6.95;;;3.20;;
39848;SDS011;25518;47.878;15.914;2023-04-22T10:03:35;6.78;;;2.90;;
39848;SDS011;25518;47.878;15.914;2023-04-22T10:06:24;6.38;;;3.05;;
39848;SDS011;25518;47.878;15.914;2023-04-22T10:09:16;9.68;;;2.88;;
39848;SDS011;25518;47.878;15.914;2023-04-22T10:12:07;6.53;;;2.67;;
39848;SDS011;25518;47.878;15.914;2023-04-22T10:14:56;5.85;;;2.53;;
39848;SDS011;25518;47.878;15.914;2023-04-22T10:17:46;4.85;;;2.80;;
39848;SDS011;25518;47.878;15.914;2023-04-22T10:20:38;7.43;;;3.38;;
39848;SDS011;25518;47.878;15.914;2023-04-22T10:23:31;5.97;;;3.10;;
39848;SDS011;25518;47.878;15.914;2023-04-22T10:26:53;6.35;;;2.70;;
39848;SDS011;25518;47.878;15.914;2023-04-22T10:29:42;5.28;;;3.10;;
39848;SDS011;25518;47.878;15.914;2023-04-22T10:32:32;6.88;;;2.75;;
39848;SDS011;25518;47.878;15.914;2023-04-22T10:35:28;6.10;;;2.83;;
39848;SDS011;25518;47.878;15.914;2023-04-22T10:38:19;7.20;;;2.88;;
39848;SDS011;25518;47.878;15.914;2023-04-22T10:41:13;10.40;;;2.60;;
39848;SDS011;25518;47.878;15.914;2023-04-22T10:44:05;5.93;;;3.00;;
39848;SDS011;25518;47.878;15.914;2023-04-22T10:46:56;5.97;;;2.70;;
39848;SDS011;25518;47.878;15.914;2023-04-22T10:49:48;5.50;;;2.75;;
39848;SDS011;25518;47.878;15.914;2023-04-22T10:52:40;6.13;;;2.78;;
39848;SDS011;25518;47.878;15.914;2023-04-22T10:56:01;4.70;;;2.60;;
39848;SDS011;25518;47.878;15.914;2023-04-22T10:58:41;6.05;;;2.67;;
39848;SDS011;25518;47.878;15.914;2023-04-22T11:01:31;5.82;;;2.50;;
39848;SDS011;25518;47.878;15.914;2023-04-22T11:04:29;5.80;;;2.47;;
39848;SDS011;25518;47.878;15.914;2023-04-22T11:10:45;3.15;;;2.10;;
39848;SDS011;25518;47.878;15.914;2023-04-22T11:13:28;4.72;;;2.25;;
39848;SDS011;25518;47.878;15.914;2023-04-22T11:16:20;5.00;;;2.22;;
39848;SDS011;25518;47.878;15.914;2023-04-22T11:19:10;4.55;;;2.25;;
39848;SDS011;25518;47.878;15.914;2023-04-22T11:21:59;3.97;;;2.10;;
39848;SDS011;25518;47.878;15.914;2023-04-22T11:24:52;4.50;;;2.33;;
39848;SDS011;25518;47.878;15.914;2023-04-22T11:27:43;4.07;;;2.30;;
39848;SDS011;25518;47.878;15.914;2023-04-22T11:30:34;4.78;;;1.95;;
39848;SDS011;25518;47.878;15.914;2023-04-22T11:33:23;4.03;;;2.10;;
39848;SDS011;25518;47.878;15.914;2023-04-22T11:36:13;4.23;;;2.20;;
39848;SDS011;25518;47.878;15.914;2023-04-22T11:39:07;4.47;;;2.20;;
39848;SDS011;25518;47.878;15.914;2023-04-22T11:41:57;5.60;;;2.40;;
39848;SDS011;25518;47.878;15.914;2023-04-22T11:44:47;4.93;;;2.10;;
39848;SDS011;25518;47.878;15.914;2023-04-22T11:47:36;5.38;;;2.28;;
39848;SDS011;25518;47.878;15.914;2023-04-22T11:50:27;4.43;;;2.15;;
39848;SDS011;25518;47.878;15.914;2023-04-22T11:53:19;5.43;;;2.13;;
39848;SDS011;25518;47.878;15.914;2023-04-22T11:56:11;4.75;;;2.00;;
39848;SDS011;25518;47.878;15.914;2023-04-22T11:59:05;4.13;;;2.17;;
39848;SDS011;25518;47.878;15.914;2023-04-22T12:01:57;4.30;;;2.50;;
39848;SDS011;25518;47.878;15.914;2023-04-22T12:04:46;4.53;;;2.17;;
39848;SDS011;25518;47.878;15.914;2023-04-22T12:07:37;3.33;;;2.00;;
39848;SDS011;25518;47.878;15.914;2023-04-22T12:10:27;4.90;;;2.43;;
39848;SDS011;25518;47.878;15.914;2023-04-22T12:16:13;4.65;;;2.30;;
39848;SDS011;25518;47.878;15.914;2023-04-22T12:19:06;5.07;;;2.47;;
39848;SDS011;25518;47.878;15.914;2023-04-22T12:21:56;4.22;;;2.30;;
39848;SDS011;25518;47.878;15.914;2023-04-22T12:24:45;6.68;;;2.17;;
39848;SDS011;25518;47.878;15.914;2023-04-22T12:27:35;4.13;;;2.25;;
39848;SDS011;25518;47.878;15.914;2023-04-22T12:30:24;4.40;;;2.35;;
39848;SDS011;25518;47.878;15.914;2023-04-22T12:33:14;3.75;;;2.53;;
39848;SDS011;25518;47.878;15.914;2023-04-22T12:36:05;5.15;;;2.38;;
39848;SDS011;25518;47.878;15.914;2023-04-22T12:38:55;4.70;;;2.28;;
39848;SDS011;25518;47.878;15.914;2023-04-22T12:41:44;4.43;;;2.22;;
39848;SDS011;25518;47.878;15.914;2023-04-22T12:44:38;4.55;;;2.42;;
39848;SDS011;25518;47.878;15.914;2023-04-22T12:47:29;3.83;;;2.10;;
39848;SDS011;25518;47.878;15.914;2023-04-22T12:50:19;5.13;;;2.30;;
39848;SDS011;25518;47.878;15.914;2023-04-22T12:53:08;5.60;;;2.30;;
39848;SDS011;25518;47.878;15.914;2023-04-22T12:55:58;4.50;;;2.10;;
39848;SDS011;25518;47.878;15.914;2023-04-22T12:58:48;4.05;;;2.10;;
39848;SDS011;25518;47.878;15.914;2023-04-22T13:01:38;3.53;;;2.00;;
39848;SDS011;25518;47.878;15.914;2023-04-22T13:04:28;4.00;;;2.23;;
39848;SDS011;25518;47.878;15.914;2023-04-22T13:07:18;3.85;;;2.08;;
39848;SDS011;25518;47.878;15.914;2023-04-22T13:10:08;3.58;;;2.33;;
39848;SDS011;25518;47.878;15.914;2023-04-22T13:12:59;4.97;;;2.38;;
39848;SDS011;25518;47.878;15.914;2023-04-22T13:15:51;3.85;;;2.22;;
39848;SDS011;25518;47.878;15.914;2023-04-22T13:18:41;4.50;;;2.70;;
39848;SDS011;25518;47.878;15.914;2023-04-22T13:21:30;4.60;;;2.40;;
39848;SDS011;25518;47.878;15.914;2023-04-22T13:24:20;3.75;;;1.98;;
39848;SDS011;25518;47.878;15.914;2023-04-22T13:27:10;7.27;;;2.20;;
39848;SDS011;25518;47.878;15.914;2023-04-22T13:30:01;4.63;;;2.17;;
39848;SDS011;25518;47.878;15.914;2023-04-22T13:32:52;3.67;;;2.35;;
39848;SDS011;25518;47.878;15.914;2023-04-22T13:35:41;17.42;;;8.50;;
39848;SDS011;25518;47.878;15.914;2023-04-22T13:38:31;5.28;;;2.47;;
39848;SDS011;25518;47.878;15.914;2023-04-22T13:41:21;9.13;;;5.70;;
39848;SDS011;25518;47.878;15.914;2023-04-22T13:44:10;5.30;;;2.70;;
39848;SDS011;25518;47.878;15.914;2023-04-22T13:47:00;4.00;;;2.20;;
39848;SDS011;25518;47.878;15.914;2023-04-22T13:49:50;3.90;;;2.10;;
39848;SDS011;25518;47.878;15.914;2023-04-22T13:52:40;5.50;;;2.10;;
39848;SDS011;25518;47.878;15.914;2023-04-22T13:55:30;4.70;;;2.27;;
39848;SDS011;25518;47.878;15.914;2023-04-22T13:58:20;3.33;;;1.90;;
39848;SDS011;25518;47.878;15.914;2023-04-22T14:01:09;3.53;;;1.90;;
39848;SDS011;25518;47.878;15.914;2023-04-22T14:03:59;7.10;;;2.33;;
39848;SDS011;25518;47.878;15.914;2023-04-22T14:06:48;3.83;;;2.07;;
39848;SDS011;25518;47.878;15.914;2023-04-22T14:09:38;4.80;;;1.95;;
39848;SDS011;25518;47.878;15.914;2023-04-22T14:12:28;3.50;;;2.10;;
39848;SDS011;25518;47.878;15.914;2023-04-22T14:15:18;3.35;;;1.88;;
39848;SDS011;25518;47.878;15.914;2023-04-22T14:18:07;3.60;;;1.83;;
39848;SDS011;25518;47.878;15.914;2023-04-22T14:20:57;5.90;;;2.35;;
39848;SDS011;25518;47.878;15.914;2023-04-22T14:23:46;3.17;;;1.95;;
39848;SDS011;25518;47.878;15.914;2023-04-22T14:26:36;4.57;;;2.17;;
39848;SDS011;25518;47.878;15.914;2023-04-22T14:29:26;3.75;;;2.25;;
39848;SDS011;25518;47.878;15.914;2023-04-22T14:32:18;4.00;;;1.70;;
39848;SDS011;25518;47.878;15.914;2023-04-22T14:35:08;4.97;;;2.30;;
39848;SDS011;25518;47.878;15.914;2023-04-22T14:37:58;8.45;;;2.38;;
39848;SDS011;25518;47.878;15.914;2023-04-22T14:40:48;3.97;;;1.98;;
39848;SDS011;25518;47.878;15.914;2023-04-22T14:43:38;4.93;;;1.97;;
39848;SDS011;25518;47.878;15.914;2023-04-22T14:46:28;5.13;;;2.10;;
39848;SDS011;25518;47.878;15.914;2023-04-22T14:49:17;5.80;;;2.38;;
39848;SDS011;25518;47.878;15.914;2023-04-22T14:52:07;5.10;;;2.38;;
39848;SDS011;25518;47.878;15.914;2023-04-22T14:54:57;4.70;;;2.15;;
39848;SDS011;25518;47.878;15.914;2023-04-22T14:57:46;3.55;;;2.05;;
39848;SDS011;25518;47.878;15.914;2023-04-22T15:00:37;3.55;;;2.25;;
39848;SDS011;25518;47.878;15.914;2023-04-22T15:03:26;7.55;;;2.30;;
39848;SDS011;25518;47.878;15.914;2023-04-22T15:06:16;3.73;;;1.80;;
39848;SDS011;25518;47.878;15.914;2023-04-22T15:09:06;4.05;;;2.30;;
39848;SDS011;25518;47.878;15.914;2023-04-22T15:11:55;5.45;;;2.40;;
39848;SDS011;25518;47.878;15.914;2023-04-22T15:14:47;4.57;;;1.90;;
39848;SDS011;25518;47.878;15.914;2023-04-22T15:17:36;4.45;;;2.08;;
39848;SDS011;25518;47.878;15.914;2023-04-22T15:20:27;4.00;;;2.10;;
39848;SDS011;25518;47.878;15.914;2023-04-22T15:23:16;5.88;;;2.35;;
39848;SDS011;25518;47.878;15.914;2023-04-22T15:26:06;5.55;;;1.95;;
39848;SDS011;25518;47.878;15.914;2023-04-22T15:28:56;4.20;;;2.03;;
39848;SDS011;25518;47.878;15.914;2023-04-22T15:31:45;5.80;;;2.05;;
39848;SDS011;25518;47.878;15.914;2023-04-22T15:34:35;3.37;;;2.10;;
39848;SDS011;25518;47.878;15.914;2023-04-22T15:37:25;4.53;;;2.25;;
39848;SDS011;25518;47.878;15.914;2023-04-22T15:40:15;4.10;;;1.90;;
39848;SDS011;25518;47.878;15.914;2023-04-22T15:43:04;4.45;;;1.95;;
39848;SDS011;25518;47.878;15.914;2023-04-22T15:45:55;3.03;;;1.90;;
39848;SDS011;25518;47.878;15.914;2023-04-22T15:48:47;3.97;;;2.22;;
39848;SDS011;25518;47.878;15.914;2023-04-22T15:51:37;4.93;;;2.00;;
39848;SDS011;25518;47.878;15.914;2023-04-22T15:54:26;4.07;;;1.95;;
39848;SDS011;25518;47.878;15.914;2023-04-22T15:57:16;4.60;;;2.03;;
39848;SDS011;25518;47.878;15.914;2023-04-22T16:00:06;5.67;;;2.17;;
39848;SDS011;25518;47.878;15.914;2023-04-22T16:02:57;4.27;;;2.20;;
39848;SDS011;25518;47.878;15.914;2023-04-22T16:05:47;4.93;;;2.25;;
39848;SDS011;25518;47.878;15.914;2023-04-22T16:08:37;5.50;;;2.30;;
39848;SDS011;25518;47.878;15.914;2023-04-22T16:11:27;3.28;;;2.00;;
39848;SDS011;25518;47.878;15.914;2023-04-22T16:14:16;5.05;;;2.20;;
39848;SDS011;25518;47.878;15.914;2023-04-22T16:17:06;5.30;;;2.08;;
39848;SDS011;25518;47.878;15.914;2023-04-22T16:19:56;4.72;;;2.17;;
39848;SDS011;25518;47.878;15.914;2023-04-22T16:22:45;3.30;;;2.10;;
39848;SDS011;25518;47.878;15.914;2023-04-22T16:25:35;3.83;;;2.10;;
39848;SDS011;25518;47.878;15.914;2023-04-22T16:28:25;5.05;;;1.88;;
39848;SDS011;25518;47.878;15.914;2023-04-22T16:31:16;4.75;;;2.10;;
39848;SDS011;25518;47.878;15.914;2023-04-22T16:34:10;6.43;;;2.30;;
39848;SDS011;25518;47.878;15.914;2023-04-22T16:37:00;4.43;;;2.25;;
39848;SDS011;25518;47.878;15.914;2023-04-22T16:39:50;3.65;;;2.05;;
39848;SDS011;25518;47.878;15.914;2023-04-22T16:42:39;3.72;;;2.05;;
39848;SDS011;25518;47.878;15.914;2023-04-22T16:45:30;4.28;;;1.98;;
39848;SDS011;25518;47.878;15.914;2023-04-22T16:48:20;7.47;;;2.60;;
39848;SDS011;25518;47.878;15.914;2023-04-22T16:51:09;3.42;;;1.90;;
39848;SDS011;25518;47.878;15.914;2023-04-22T16:53:59;8.97;;;5.07;;
39848;SDS011;25518;47.878;15.914;2023-04-22T16:56:49;29.33;;;16.35;;
39848;SDS011;25518;47.878;15.914;2023-04-22T16:59:38;7.43;;;3.50;;
39848;SDS011;25518;47.878;15.914;2023-04-22T17:02:28;17.35;;;8.15;;
39848;SDS011;25518;47.878;15.914;2023-04-22T17:05:18;48.72;;;21.42;;
39848;SDS011;25518;47.878;15.914;2023-04-22T17:08:08;95.85;;;43.85;;
39848;SDS011;25518;47.878;15.914;2023-04-22T17:10:57;54.47;;;26.50;;
39848;SDS011;25518;47.878;15.914;2023-04-22T17:13:47;16.65;;;9.15;;